Weather at Boca Raton Airport

Public forecast

Using degrees Fahrenheit for public forecast. Weather courtesy of forecast.io.

Current aviation weather report (METAR) for Boca Raton Airport

Retrieved 2020/12/01 03:53 UTC (1 hour ago):

KBCT 010353Z 32018KT 8SM BKN045 20/15 A2998

Aviation forecast (TAF) for Boca Raton Airport

Forecast is more than 12 hours old.

Retrieved 2020/02/03 18:20 UTC (10 months ago):

TAF KBCT 031720Z 0318/0418 12005KT P6SM SKC FM040000 VRB03KT P6SM SKC FM041400 16011KT P6SM FEW030